»·PEaware :: N221XG KSJC-KCCR

N221XG :: KSJC-KCCR

FLIGHT INFORMATION

Flight Status: Arrived
Operator: Privately registered:
United States
More flights under this callsign
Pilot: Ryan L. (9775)
Aircraft: Diamond DA-40
(DA40)
More flights by this aircraft type
Origin: KSJC Mineta San Jose Intl
United States
Destination: KCCR Buchanan
United States
More flights between these airports :: More routes between these airports
Route: +OAK V6 COLLI
File this flight plan on PilotEdge
Remarks: LDA RWY 19R via REJOY
Altitude:
(Current/Filed)
8,000ft
Speed:
(Current/Filed)
130kts
Departed: 08-Sep-20 06:21 PM
Arrived: 08-Sep-20 06:58 PM
Distance/Time
Traveled:
38nm/0:37
Distance/Time
To Go:
Arrived

Flight Plot

Page will automatically refresh every two minutes.

Flight plan parsing failed; only flown route is shown


Map Options




Map Legend


Flown Route
Filed Route
Departure Airport
Arrival Airport
Navaid (VOR, NDB)
Fix

Horizontal Profiles

Position Reports

Time Latitude Longitude Heading Altitude Ground
Speed
08-Sep-20 17:59 37.353461 -121.922961 229 62ft 0kts
08-Sep-20 18:00 37.353461 -121.922961 229 62ft 0kts
08-Sep-20 18:01 37.353461 -121.922961 229 62ft 0kts
08-Sep-20 18:02 37.353461 -121.922961 229 62ft 0kts
08-Sep-20 18:03 37.353461 -121.922961 229 62ft 0kts
08-Sep-20 18:04 37.353461 -121.922961 229 62ft 0kts
08-Sep-20 18:06 37.353461 -121.922961 229 62ft 0kts
08-Sep-20 18:08 37.353461 -121.922961 229 62ft 0kts
08-Sep-20 18:09 37.353461 -121.922961 229 62ft 0kts
08-Sep-20 18:10 37.353461 -121.922961 229 62ft 0kts
08-Sep-20 18:11 37.353461 -121.922961 229 62ft 0kts
08-Sep-20 18:12 37.353461 -121.922961 229 62ft 0kts
08-Sep-20 18:13 37.353456 -121.922977 253 62ft 1kts
08-Sep-20 18:14 37.353902 -121.922857 106 62ft 0kts
08-Sep-20 18:15 37.353902 -121.922857 106 62ft 0kts
08-Sep-20 18:16 37.353902 -121.922857 106 62ft 0kts
08-Sep-20 18:17 37.353902 -121.922857 106 62ft 0kts
08-Sep-20 18:18 37.353959 -121.922348 77 63ft 6kts
08-Sep-20 18:19 37.352223 -121.919744 60 63ft 0kts
08-Sep-20 18:20 37.352385 -121.919481 47 63ft 8kts
08-Sep-20 18:21 37.359020 -121.925854 319 103ft 77kts
08-Sep-20 18:22 37.375845 -121.944005 312 795ft 82kts
08-Sep-20 18:23 37.391634 -121.965220 309 1552ft 84kts
08-Sep-20 18:24 37.410239 -121.984212 319 2370ft 87kts
08-Sep-20 18:25 37.431005 -122.001895 323 3151ft 92kts
08-Sep-20 18:25 37.448283 -122.016875 317 3846ft 89kts
08-Sep-20 18:27 37.471663 -122.042255 317 4796ft 92kts
08-Sep-20 18:27 37.491107 -122.064653 316 4987ft 127kts
08-Sep-20 18:28 37.519503 -122.091434 333 4999ft 130kts
08-Sep-20 18:29 37.551418 -122.111726 333 4998ft 130kts
08-Sep-20 18:30 37.583665 -122.132315 331 4998ft 128kts
08-Sep-20 18:31 37.615675 -122.152804 332 4998ft 129kts
08-Sep-20 18:32 37.647691 -122.173330 332 4999ft 129kts
08-Sep-20 18:33 37.679761 -122.193924 332 5000ft 129kts
08-Sep-20 18:34 37.711851 -122.214533 332 4999ft 129kts
08-Sep-20 18:35 37.740814 -122.203568 36 4999ft 129kts
08-Sep-20 18:36 37.769861 -122.178808 38 4764ft 134kts
08-Sep-20 18:37 37.798109 -122.149913 39 4750ft 130kts
08-Sep-20 18:38 37.825686 -122.121580 38 4941ft 123kts
08-Sep-20 18:39 37.852070 -122.094474 39 5143ft 122kts
08-Sep-20 18:40 37.878410 -122.067433 39 5338ft 122kts
08-Sep-20 18:41 37.910338 -122.061809 356 5538ft 121kts
08-Sep-20 18:42 37.942826 -122.063732 356 5730ft 121kts
08-Sep-20 18:43 37.976759 -122.065730 357 5931ft 122kts
08-Sep-20 18:44 38.008654 -122.052539 23 6131ft 123kts
08-Sep-20 18:45 38.041235 -122.033068 49 5865ft 132kts
08-Sep-20 18:46 38.074361 -122.013592 19 5563ft 132kts
08-Sep-20 18:47 38.108829 -122.000253 14 5269ft 131kts
08-Sep-20 18:48 38.128662 -121.966401 64 4756ft 110kts
08-Sep-20 18:49 38.148021 -121.940840 327 3903ft 122kts
08-Sep-20 18:50 38.141390 -121.978776 242 2898ft 119kts
08-Sep-20 18:51 38.118061 -122.003952 202 2328ft 105kts
08-Sep-20 18:52 38.090978 -122.015678 198 1957ft 104kts
08-Sep-20 18:53 38.063245 -122.026867 198 1300ft 101kts
08-Sep-20 18:54 38.038753 -122.032457 187 1202ft 91kts
08-Sep-20 18:55 38.014612 -122.043292 204 709ft 90kts
08-Sep-20 18:56 37.993846 -122.054819 204 52ft 75kts
08-Sep-20 18:57 37.986003 -122.060664 267 26ft 13kts
08-Sep-20 18:58 37.986594 -122.061620 28 25ft 0kts
08-Sep-20 18:59 37.986594 -122.061620 28 25ft 0kts
08-Sep-20 19:00 37.986594 -122.061620 28 25ft 0kts
08-Sep-20 19:01 37.986594 -122.061620 28 25ft 0kts
08-Sep-20 19:02 37.986594 -122.061620 28 25ft 0kts
08-Sep-20 19:03 37.986594 -122.061620 28 25ft 0kts
08-Sep-20 19:04 37.986594 -122.061620 28 25ft 0kts
08-Sep-20 19:05 37.986594 -122.061620 28 25ft 0kts

Navigation Log

Ident Type
Flight plan parsing failed, navigation log unavailable